ADDS METAR Data INFO
IDs: Format: Raw Decoded Include TAF

Data at: 0716 UTC 19 Oct 2017

KCWF 190655Z AUTO 00000KT 10SM 16/15 A3014 RMK AO2 T01590150
KCWF 190635Z AUTO 09003KT 10SM 16/14 A3014 RMK AO2 T01570135
KCWF 190615Z AUTO 08004KT 10SM 15/14 A3014 RMK AO2 T01530141
KCWF 190555Z AUTO 08005KT 10SM 15/15 A3014 RMK AO2 T01550147 10223 20153 403100105
KCWF 190535Z AUTO 00000KT 10SM 15/14 A3014 RMK AO2 T01530141
KCWF 190515Z AUTO 09005KT 10SM 16/15 A3015 RMK AO2 T01570147
KCWF 190455Z AUTO 00000KT 10SM 16/15 A3015 RMK AO2 T01610152
KCWF 190435Z AUTO 09008KT 10SM 16/14 A3015 RMK AO2 T01620142
KCWF 190415Z AUTO 00000KT 10SM 17/15 A3016 RMK AO2 T01670146
KCWF 190355Z AUTO 09007KT 10SM 17/15 A3016 RMK AO2 T01700147
KCWF 190335Z AUTO 00000KT 10SM 17/13 A3017 RMK AO2 T01700132
KCWF 190315Z AUTO 00000KT 10SM 17/15 A3016 RMK AO2 T01670148
KCWF 190250Z 00000KT 10SM SKC 18/16 A3016 RMK LAST
KCWF 190150Z 00000KT 10SM SKC 19/16 A3015
KCWF 190050Z 00000KT 10SM SKC 20/15 A3013
KCWF 182350Z 00000KT 10SM SKC 23/13 A3011
KCWF 182250Z 10003KT 10SM SKC 28/14 A3010
KCWF 182150Z 12005KT 10SM SKC 29/13 A3011
KCWF 182050Z 12005KT 10SM SKC 31/14 A3011
KCWF 181950Z 07003KT 10SM SKC 30/15 A3013
KCWF 181850Z 07004G17KT 10SM SKC 29/15 A3015
KCWF 181755Z 12004KT 10SM SKC 28/15 A3018
KCWF 181650Z 08005KT 10SM SKC 25/16 A3020
KCWF 181550Z 06004KT 10SM SKC 25/16 A3020
KCWF 181450Z 08005KT 10SM SKC 21/16 A3021
KCWF 181355Z 08005KT 10SM SKC 18/14 A3012
KCWF 181250Z 00000KT 10SM SKC 13/12 A3017
KCWF 181150Z 00000KT 10SM SKC 12/10 A3017
KCWF 181100Z 06004KT 10SM SKC 11/10 A3016
KCWF 181055Z AUTO 00000KT 10SM 11/10 A3016 RMK AO2 T01130103
KCWF 181035Z AUTO 00000KT 10SM 10/10 A3016 RMK AO2 T01050095
KCWF 181015Z AUTO 00000KT 10SM 11/10 A3016 RMK AO2 T01070100
KCWF 180955Z AUTO 00000KT 10SM 10/10 A3015 RMK AO2 T01050096
KCWF 180935Z AUTO 00000KT 10SM 11/10 A3015 RMK AO2 T01100100
KCWF 180915Z AUTO 00000KT 10SM 11/11 A3016 RMK AO2 T01150106
KCWF 180855Z AUTO 00000KT 10SM 12/11 A3016 RMK AO2 T01170110
KCWF 180835Z AUTO 00000KT 10SM 12/11 A3016 RMK AO2 T01170110
KCWF 180815Z AUTO 00000KT 10SM 12/11 A3017 RMK AO2 T01160109
KCWF 180755Z AUTO 00000KT 10SM 11/10 A3017 RMK AO2 T01080097
KCWF 180735Z AUTO 09006KT 10SM 11/10 A3016 RMK AO2 T01130103
KCWF 180715Z AUTO 00000KT 10SM 11/10 A3016 RMK AO2 T01150099
KCWF 180655Z AUTO 00000KT 10SM 12/11 A3016 RMK AO2 T01210109
KCWF 180635Z AUTO 00000KT 10SM 12/11 A3016 RMK AO2 T01230108
KCWF 180615Z AUTO 02003KT 10SM 12/11 A3016 RMK AO2 T01250109
KCWF 180555Z AUTO 00000KT 10SM 13/11 A3017 RMK AO2 T01300112 10192 20116 402710100
KCWF 180535Z AUTO 00000KT 10SM 13/11 A3017 RMK AO2 T01310113
KCWF 180515Z AUTO 00000KT 10SM 13/11 A3017 RMK AO2 T01280111
KCWF 180455Z AUTO 00000KT 10SM 12/10 A3017 RMK AO2 T01220097
KCWF 180435Z AUTO 00000KT 10SM 12/09 A3018 RMK AO2 T01170086
KCWF 180415Z AUTO 00000KT 10SM 12/10 A3018 RMK AO2 T01240100
KCWF 180355Z AUTO 00000KT 10SM 13/11 A3018 RMK AO2 T01320107
KCWF 180335Z AUTO 00000KT 10SM 12/08 A3018 RMK AO2 T01200083
KCWF 180315Z AUTO 00000KT 10SM 12/08 A3018 RMK AO2 T01220083
KCWF 180250Z 01006KT 10SM SKC 15/10 A3017 RMK LAST
KCWF 180155Z 02005KT 10SM SKC 15/10 A3017
KCWF 180050Z 01006KT 10SM SKC 17/10 A3015
KCWF 172355Z 36003KT 10SM SKC 19/09 A3014
KCWF 172250Z 02007G14KT 10SM SKC 25/08 A3013
KCWF 172150Z 04007KT 10SM SKC 26/08 A3013
KCWF 172050Z 04007KT 10SM SKC 26/08 A3014
KCWF 171950Z 02008KT 10SM SKC 25/08 A3016